Time;durP1;ratioP1;P1;durP2;ratioP2;P2;SDS_P1;SDS_P2;PMS_P1;PMS_P2;Temp;Humidity;BMP_temperature;BMP_pressure;BME280_temperature;BME280_humidity;BME280_pressure;Samples;Min_cycle;Max_cycle;Signal;HPM_P1;HPM_P2
2021/08/23 00:01:45;;;;;;;8.23;5.10;;;;;;;24.64;53.18;99792.66;4501810;31;34774;-94
2021/08/23 00:04:14;;;;;;;5.53;4.47;;;;;;;24.56;53.68;99791.38;4487320;31;34854;-90
2021/08/23 00:06:41;;;;;;;6.00;4.80;;;;;;;24.59;53.82;99789.41;4486974;31;33969;-89
2021/08/23 00:09:09;;;;;;;6.03;4.62;;;;;;;24.58;53.84;99787.69;4487132;31;32702;-90
2021/08/23 00:11:37;;;;;;;7.50;5.25;;;;;;;24.37;54.37;99783.59;4487447;31;33945;-94
2021/08/23 00:14:04;;;;;;;8.18;5.07;;;;;;;24.45;54.05;99780.50;4474183;31;34895;-92
2021/08/23 00:16:32;;;;;;;7.80;5.35;;;;;;;24.46;54.10;99769.78;4474156;31;33482;-90
2021/08/23 00:19:00;;;;;;;6.68;4.87;;;;;;;24.45;54.25;99770.72;4499991;31;33215;-89
2021/08/23 00:21:28;;;;;;;7.37;5.00;;;;;;;24.55;53.98;99768.41;4502962;31;34827;-89
2021/08/23 00:24:17;;;;;;;6.78;4.62;;;;;;;24.64;53.79;99763.41;4502129;31;35422;-90
2021/08/23 00:26:45;;;;;;;8.23;5.35;;;;;;;24.62;54.01;99762.66;4488990;31;33686;-91
2021/08/23 00:29:13;;;;;;;5.65;4.47;;;;;;;24.51;54.49;99770.38;4488792;31;32860;-89
2021/08/23 00:31:40;;;;;;;6.45;5.37;;;;;;;24.55;54.53;99758.63;4501977;31;34292;-89
2021/08/23 00:34:08;;;;;;;8.35;5.30;;;;;;;24.56;54.60;99755.00;4489174;31;33905;-90
2021/08/23 00:36:35;;;;;;;6.18;4.78;;;;;;;24.51;54.72;99756.25;4502018;31;34243;-93
2021/08/23 00:39:08;;;;;;;6.82;5.10;;;;;;;24.57;54.57;99759.41;4502199;31;33695;-90
2021/08/23 00:41:36;;;;;;;6.68;5.20;;;;;;;24.49;54.90;99760.75;4501853;31;33974;-90
2021/08/23 00:44:05;;;;;;;5.72;4.70;;;;;;;24.44;55.26;99754.88;4475940;31;33947;-91
2021/08/23 00:46:33;;;;;;;7.05;4.80;;;;;;;24.38;55.40;99755.22;4475910;31;34428;-90
2021/08/23 00:49:03;;;;;;;6.25;4.70;;;;;;;24.41;55.35;99755.91;4488760;31;34280;-90
2021/08/23 00:51:31;;;;;;;5.47;4.30;;;;;;;24.36;55.45;99749.13;4488786;31;34315;-90
2021/08/23 00:53:59;;;;;;;6.75;4.32;;;;;;;24.38;55.25;99736.59;4501735;31;35446;-89
2021/08/23 00:56:26;;;;;;;5.15;4.53;;;;;;;24.47;55.11;99750.22;4488624;31;35007;-89
2021/08/23 00:58:54;;;;;;;7.68;5.00;;;;;;;24.41;55.27;99747.06;4501778;31;33434;-90
2021/08/23 01:01:37;;;;;;;7.57;4.70;;;;;;;24.41;55.41;99747.06;4502617;31;34812;-90
2021/08/23 01:04:11;;;;;;;8.02;5.32;;;;;;;24.39;55.54;99749.78;4488925;31;35352;-90
2021/08/23 01:06:38;;;;;;;7.75;4.55;;;;;;;24.31;55.83;99752.06;4475749;31;33430;-89
2021/08/23 01:09:09;;;;;;;6.12;4.93;;;;;;;24.31;55.81;99748.53;4488570;31;33833;-89
2021/08/23 01:11:41;;;;;;;6.80;5.05;;;;;;;24.34;55.81;99751.91;4488457;31;33218;-90
2021/08/23 01:14:09;;;;;;;10.32;5.15;;;;;;;24.40;55.61;99750.66;4488866;31;34075;-90
2021/08/23 01:16:37;;;;;;;7.18;4.97;;;;;;;24.37;55.77;99757.00;4501356;31;34010;-90
2021/08/23 01:19:05;;;;;;;6.37;4.50;;;;;;;24.22;56.23;99757.91;4501839;31;33201;-88
2021/08/23 01:21:33;;;;;;;7.47;4.90;;;;;;;24.37;55.95;99756.16;4488672;31;33640;-88
2021/08/23 01:24:02;;;;;;;6.03;4.90;;;;;;;24.32;56.10;99753.75;4488414;31;33912;-88
2021/08/23 01:26:42;;;;;;;7.28;5.05;;;;;;;24.28;56.21;99754.88;4488336;31;33700;-90
2021/08/23 01:29:17;;;;;;;5.82;4.62;;;;;;;24.33;56.03;99760.78;4475790;31;33896;-89
2021/08/23 01:31:56;;;;;;;6.95;4.20;;;;;;;24.31;56.06;99762.69;4501135;31;33997;-90
2021/08/23 01:34:25;;;;;;;7.47;5.22;;;;;;;24.30;56.21;99758.31;4488433;31;34019;-90
2021/08/23 01:36:53;;;;;;;7.18;5.22;;;;;;;24.38;56.08;99764.06;4488183;31;33511;-90
2021/08/23 01:39:21;;;;;;;7.93;5.25;;;;;;;24.25;56.50;99770.16;4488576;31;33210;-90
2021/08/23 01:41:49;;;;;;;6.43;4.78;;;;;;;24.13;56.61;99764.56;4488507;31;34509;-90
2021/08/23 01:44:16;;;;;;;6.65;5.00;;;;;;;24.33;56.09;99766.13;4488472;31;34341;-90
2021/08/23 01:46:44;;;;;;;7.07;4.97;;;;;;;24.30;56.08;99765.41;4488315;31;34535;-91
2021/08/23 01:49:12;;;;;;;6.03;4.85;;;;;;;24.31;56.03;99773.31;4488701;31;34248;-92
2021/08/23 01:51:39;;;;;;;7.03;4.93;;;;;;;24.35;55.84;99769.53;4488139;31;33262;-91
2021/08/23 01:54:07;;;;;;;6.43;4.72;;;;;;;24.42;55.80;99770.91;4488265;31;34618;-89
2021/08/23 01:56:35;;;;;;;7.78;5.28;;;;;;;23.79;58.19;99816.94;4488097;31;34089;-89
2021/08/23 01:59:03;;;;;;;6.00;4.97;;;;;;;23.99;56.67;99803.44;4501330;31;33761;-88
2021/08/23 02:01:32;;;;;;;6.00;4.78;;;;;;;23.73;56.41;99809.31;4488132;31;33765;-89
2021/08/23 02:04:00;;;;;;;6.90;5.55;;;;;;;23.93;55.20;99801.13;4488302;31;34632;-89
2021/08/23 02:06:28;;;;;;;10.90;6.20;;;;;;;23.77;55.81;99803.75;4488099;31;34310;-90
2021/08/23 02:08:55;;;;;;;9.38;6.43;;;;;;;23.92;55.74;99802.06;4501305;31;34278;-90
2021/08/23 02:11:24;;;;;;;9.95;6.30;;;;;;;24.10;55.92;99801.09;4488130;31;33359;-91
2021/08/23 02:13:53;;;;;;;9.50;6.53;;;;;;;24.12;56.22;99789.44;4488534;31;35439;-92
2021/08/23 02:16:21;;;;;;;9.45;6.70;;;;;;;24.16;56.54;99795.44;4487875;31;34869;-92
2021/08/23 02:18:49;;;;;;;9.25;7.15;;;;;;;24.04;57.04;99788.09;4488364;31;33000;-92
2021/08/23 02:21:19;;;;;;;9.43;6.37;;;;;;;24.19;56.37;99792.63;4488208;31;33244;-91
2021/08/23 02:23:48;;;;;;;8.50;6.85;;;;;;;24.02;56.97;99792.66;4487965;31;34114;-92
2021/08/23 02:26:17;;;;;;;9.88;6.20;;;;;;;24.07;56.94;99785.31;4475178;31;33730;-90
2021/08/23 02:28:44;;;;;;;9.68;6.28;;;;;;;24.10;56.78;99787.81;4487983;31;34204;-91
2021/08/23 02:31:12;;;;;;;8.40;6.30;;;;;;;24.00;56.99;99786.56;4475017;31;34113;-91
2021/08/23 02:33:40;;;;;;;8.13;6.40;;;;;;;23.81;57.53;99783.19;4488300;31;33754;-91
2021/08/23 02:36:07;;;;;;;9.07;6.70;;;;;;;24.00;56.95;99790.09;4487629;31;33714;-91
2021/08/23 02:38:35;;;;;;;7.85;6.15;;;;;;;23.64;58.39;99797.38;4488289;31;33358;-91
2021/08/23 02:41:03;;;;;;;6.93;6.22;;;;;;;23.90;57.77;99783.56;4487987;31;34285;-92
2021/08/23 02:43:30;;;;;;;8.93;6.62;;;;;;;23.78;58.26;99783.34;4487689;31;35469;-91
2021/08/23 02:45:58;;;;;;;8.25;6.47;;;;;;;23.80;58.45;99776.16;4487995;31;34593;-91
2021/08/23 02:48:25;;;;;;;9.52;7.03;;;;;;;23.67;58.86;99781.31;4475103;31;32858;-91
2021/08/23 02:50:53;;;;;;;10.48;6.95;;;;;;;23.84;58.33;99778.59;4487951;31;34227;-91
2021/08/23 02:53:21;;;;;;;9.50;6.53;;;;;;;24.02;58.00;99777.56;4475219;31;34923;-91
2021/08/23 02:55:48;;;;;;;8.55;6.70;;;;;;;23.83;58.83;99773.34;4487720;31;34007;-92
2021/08/23 02:58:16;;;;;;;8.73;6.65;;;;;;;23.88;58.81;99763.34;4487594;31;33774;-91
2021/08/23 03:00:43;;;;;;;9.32;6.25;;;;;;;23.94;58.78;99761.19;4487826;31;34141;-91
2021/08/23 03:03:12;;;;;;;9.52;6.85;;;;;;;23.82;59.46;99769.81;4500906;31;34105;-91
2021/08/23 03:05:39;;;;;;;14.45;7.10;;;;;;;23.81;59.68;99769.91;4474763;31;34248;-91
2021/08/23 03:08:07;;;;;;;11.00;6.53;;;;;;;23.56;60.52;99773.91;4487772;31;34069;-92
2021/08/23 03:10:35;;;;;;;11.25;6.87;;;;;;;23.44;60.97;99766.59;4475177;31;33767;-91
2021/08/23 03:13:05;;;;;;;9.10;6.70;;;;;;;23.67;60.39;99767.16;4500709;31;34547;-91
2021/08/23 03:15:32;;;;;;;9.85;6.70;;;;;;;23.28;61.76;99773.63;4487753;31;33497;-91
2021/08/23 03:18:01;;;;;;;9.00;7.15;;;;;;;23.38;61.50;99779.31;4487747;31;33345;-89
2021/08/23 03:20:28;;;;;;;8.95;7.70;;;;;;;23.11;62.47;99791.31;4487648;31;33584;-91
2021/08/23 03:22:56;;;;;;;7.97;6.90;;;;;;;23.18;62.24;99793.59;4487870;31;34912;-90
2021/08/23 03:25:24;;;;;;;7.60;6.65;;;;;;;22.85;63.54;99805.91;4487635;31;34624;-90
2021/08/23 03:27:51;;;;;;;9.65;7.62;;;;;;;23.11;nan;99809.91;4500882;31;34183;-90
2021/08/23 03:30:19;;;;;;;8.65;6.60;;;;;;;23.01;62.93;99811.31;4500093;31;33645;-90
2021/08/23 03:32:47;;;;;;;8.32;6.62;;;;;;;22.86;63.34;99820.91;4500761;31;35430;-89
2021/08/23 03:35:15;;;;;;;8.55;6.95;;;;;;;23.08;62.44;99818.91;4500549;31;34268;-90
2021/08/23 03:37:42;;;;;;;8.68;6.82;;;;;;;22.89;63.05;99818.09;4500666;31;33422;-90
2021/08/23 03:40:11;;;;;;;8.43;6.22;;;;;;;23.05;62.44;99826.13;4487571;31;33972;-90
2021/08/23 03:42:38;;;;;;;7.28;6.32;;;;;;;23.22;61.90;99819.06;4500528;31;34640;-92
2021/08/23 03:45:06;;;;;;;7.80;6.53;;;;;;;23.14;61.90;99821.22;4487414;31;34368;-90
2021/08/23 03:47:34;;;;;;;8.38;6.40;;;;;;;23.05;62.33;99829.66;4487551;31;34201;-92
2021/08/23 03:50:03;;;;;;;7.70;6.82;;;;;;;23.10;62.16;99817.03;4487287;31;34010;-91
2021/08/23 03:52:30;;;;;;;9.02;6.72;;;;;;;23.05;62.62;99824.34;4474252;31;34994;-91
2021/08/23 03:54:58;;;;;;;10.45;6.85;;;;;;;23.07;62.61;99821.59;4499450;31;34509;-91
2021/08/23 03:57:25;;;;;;;11.50;7.03;;;;;;;23.03;62.70;99820.94;4487188;31;34011;-91
2021/08/23 03:59:53;;;;;;;12.02;7.57;;;;;;;23.02;62.71;99819.19;4500339;31;34728;-91
2021/08/23 04:02:21;;;;;;;8.50;7.57;;;;;;;23.06;62.89;99835.81;4487305;31;35454;-91
2021/08/23 04:04:49;;;;;;;10.02;8.63;;;;;;;23.05;63.18;99837.62;4487196;31;34076;-91
2021/08/23 04:07:16;;;;;;;11.38;8.75;;;;;;;23.03;63.68;99836.84;4487169;31;33769;-90
2021/08/23 04:09:44;;;;;;;12.30;9.18;;;;;;;23.02;63.89;99845.72;4474131;31;32988;-90
2021/08/23 04:12:12;;;;;;;9.95;8.95;;;;;;;22.89;64.40;99850.75;4487104;31;33949;-91
2021/08/23 04:14:39;;;;;;;11.07;9.52;;;;;;;22.87;64.52;99843.81;4486963;31;34294;-90
2021/08/23 04:17:07;;;;;;;10.73;9.05;;;;;;;23.02;64.21;99848.37;4486657;31;32871;-91
2021/08/23 04:19:35;;;;;;;11.57;8.90;;;;;;;23.03;64.16;99849.22;4499925;31;33945;-90
2021/08/23 04:22:02;;;;;;;10.80;8.85;;;;;;;22.95;64.31;99844.31;4473799;31;34833;-90
2021/08/23 04:24:30;;;;;;;9.88;8.88;;;;;;;23.12;63.60;99849.63;4499740;31;34138;-91
2021/08/23 04:26:58;;;;;;;9.10;8.10;;;;;;;22.82;64.56;99859.97;4486756;31;32808;-90
2021/08/23 04:29:26;;;;;;;8.65;7.45;;;;;;;22.87;64.25;99846.47;4499802;31;34793;-90
2021/08/23 04:31:53;;;;;;;7.70;6.75;;;;;;;22.99;63.61;99850.34;4486657;31;34547;-90
2021/08/23 04:34:21;;;;;;;7.97;6.40;;;;;;;22.73;64.17;99855.13;4486659;31;33169;-90
2021/08/23 04:36:49;;;;;;;7.30;6.22;;;;;;;23.03;63.28;99857.19;4499516;31;33329;-91
2021/08/23 04:39:16;;;;;;;7.65;6.80;;;;;;;22.88;63.19;99853.50;4486536;31;33239;-90
2021/08/23 04:41:44;;;;;;;7.57;6.40;;;;;;;22.85;63.43;99853.66;4499480;31;35441;-90
2021/08/23 04:44:12;;;;;;;7.60;6.60;;;;;;;22.92;63.31;99854.22;4473429;31;34479;-91
2021/08/23 04:46:39;;;;;;;7.37;6.25;;;;;;;22.90;63.31;99854.28;4486443;31;33031;-91
2021/08/23 04:49:07;;;;;;;8.18;6.05;;;;;;;23.12;62.75;99870.00;4473599;31;34114;-91
2021/08/23 04:51:37;;;;;;;7.43;6.70;;;;;;;22.87;63.82;99867.69;4486615;31;33850;-92
2021/08/23 04:54:04;;;;;;;9.10;6.90;;;;;;;22.91;63.78;99858.66;4473478;31;33622;-94
2021/08/23 04:56:40;;;;;;;9.63;8.32;;;;;;;22.88;63.97;99861.47;4487374;31;33569;-91
2021/08/23 04:59:07;;;;;;;8.65;7.37;;;;;;;22.65;65.10;99862.59;4486565;31;34260;-91
2021/08/23 05:01:35;;;;;;;10.77;7.45;;;;;;;22.80;64.75;99859.19;4472723;31;35740;-91
2021/08/23 05:04:03;;;;;;;8.57;7.70;;;;;;;23.02;63.94;99850.16;4499178;31;33699;-90
2021/08/23 05:06:31;;;;;;;10.30;8.10;;;;;;;23.11;63.48;99852.34;4486349;31;33049;-91
2021/08/23 05:08:58;;;;;;;12.10;8.70;;;;;;;23.21;63.29;99856.25;4488446;31;34256;-89
2021/08/23 05:11:26;;;;;;;11.82;8.75;;;;;;;23.03;64.07;99863.37;4488698;31;35455;-91
2021/08/23 05:13:54;;;;;;;14.63;10.52;;;;;;;23.07;64.20;99869.34;4488902;31;33580;-90
2021/08/23 05:16:21;;;;;;;11.63;9.80;;;;;;;22.85;65.27;99870.44;4501571;31;32612;-91
2021/08/23 05:18:49;;;;;;;10.52;9.43;;;;;;;22.94;65.07;99868.28;4488724;31;33388;-92
2021/08/23 05:21:17;;;;;;;11.48;10.32;;;;;;;23.06;64.37;99873.81;4501552;31;34272;-91
2021/08/23 05:23:44;;;;;;;12.13;10.45;;;;;;;22.83;65.21;99882.03;4488511;31;34262;-91
2021/08/23 05:26:12;;;;;;;10.68;9.15;;;;;;;22.79;65.17;99876.03;4488617;31;32927;-89
2021/08/23 05:28:39;;;;;;;12.35;8.50;;;;;;;22.77;65.22;99879.69;4488796;31;33601;-89
2021/08/23 05:31:07;;;;;;;10.40;8.85;;;;;;;22.79;65.04;99881.34;4488791;31;35091;-90
2021/08/23 05:33:35;;;;;;;10.85;9.00;;;;;;;22.62;65.92;99878.63;4502670;31;34339;-90
2021/08/23 05:36:02;;;;;;;9.20;7.90;;;;;;;22.76;65.23;99885.91;4499612;31;34624;-89
2021/08/23 05:38:30;;;;;;;8.75;7.85;;;;;;;22.66;65.56;99889.94;4488522;31;34639;-90
2021/08/23 05:40:58;;;;;;;13.38;8.10;;;;;;;22.68;65.34;99901.31;4508562;31;34969;-89
2021/08/23 05:43:26;;;;;;;8.82;7.32;;;;;;;22.51;65.79;99895.97;4475680;31;34325;-89
2021/08/23 05:45:55;;;;;;;8.40;7.20;;;;;;;22.37;66.08;99914.31;4501638;31;33455;-89
2021/08/23 05:48:23;;;;;;;7.93;6.95;;;;;;;22.56;65.55;99909.84;4475739;31;34112;-89
2021/08/23 05:50:51;;;;;;;8.10;6.72;;;;;;;22.73;64.73;99918.75;4488254;31;33987;-88
2021/08/23 05:53:19;;;;;;;6.93;5.75;;;;;;;22.81;64.45;99919.25;4462726;31;33466;-90
2021/08/23 05:55:46;;;;;;;9.82;5.80;;;;;;;22.88;64.25;99925.97;4502606;31;33523;-96
2021/08/23 05:58:30;;;;;;;5.32;3.40;;;;;;;23.07;63.14;99925.94;4490229;31;33991;-90
2021/08/23 06:00:58;;;;;;;6.62;2.87;;;;;;;22.51;63.02;99933.06;4488430;31;34601;-90
2021/08/23 06:03:28;;;;;;;4.10;2.78;;;;;;;22.76;61.97;99933.66;4488236;31;34961;-92
2021/08/23 06:05:55;;;;;;;5.65;2.30;;;;;;;22.42;62.45;99944.06;4488073;31;33321;-90
2021/08/23 06:08:23;;;;;;;3.10;2.45;;;;;;;22.18;63.15;99944.25;4501196;31;34685;-89
2021/08/23 06:10:51;;;;;;;3.30;2.25;;;;;;;22.13;63.40;99946.25;4501318;31;34743;-93
2021/08/23 06:13:19;;;;;;;3.28;2.10;;;;;;;21.87;64.06;99946.56;4475743;31;33783;-94
2021/08/23 06:15:46;;;;;;;2.75;2.20;;;;;;;22.13;63.12;99948.06;4488326;31;32949;-94
2021/08/23 06:18:14;;;;;;;2.83;2.30;;;;;;;21.92;63.61;99954.28;4487799;31;33223;-93
2021/08/23 06:20:42;;;;;;;3.85;1.80;;;;;;;21.92;63.44;99955.16;4475676;31;34264;-93
2021/08/23 06:23:10;;;;;;;4.40;1.70;;;;;;;22.05;62.76;99966.06;4501264;31;33415;-92
2021/08/23 06:25:38;;;;;;;3.33;2.08;;;;;;;22.11;62.54;99966.66;4488012;31;33469;-93
2021/08/23 06:28:06;;;;;;;3.53;1.98;;;;;;;21.84;63.05;99967.88;4484955;31;34392;-94
2021/08/23 06:30:35;;;;;;;1.95;1.70;;;;;;;22.07;62.48;99964.22;4469943;31;35063;-92
2021/08/23 06:33:03;;;;;;;1.67;1.50;;;;;;;21.83;62.81;99968.78;4490357;31;34245;-92
2021/08/23 06:35:33;;;;;;;2.62;1.75;;;;;;;22.02;61.50;99969.72;4491000;31;33032;-93
2021/08/23 06:38:00;;;;;;;3.30;1.75;;;;;;;21.77;62.50;99968.19;4517323;31;33941;-92
2021/08/23 06:40:28;;;;;;;3.08;1.67;;;;;;;21.72;62.70;99956.94;4487336;31;34806;-90
2021/08/23 06:42:56;;;;;;;1.80;1.52;;;;;;;21.85;62.20;99955.47;4475789;31;33910;-91
2021/08/23 06:45:23;;;;;;;1.60;1.40;;;;;;;21.84;62.20;99961.69;4475155;31;32951;-92
2021/08/23 06:47:51;;;;;;;2.45;1.52;;;;;;;21.91;62.04;99953.47;4487676;31;33307;-92
2021/08/23 06:50:22;;;;;;;2.78;1.73;;;;;;;22.03;61.46;99962.66;4463009;31;33800;-89
2021/08/23 06:52:49;;;;;;;2.55;1.73;;;;;;;22.09;61.63;99947.34;4495109;31;33393;-90
2021/08/23 06:55:17;;;;;;;2.37;1.77;;;;;;;22.23;61.45;99944.91;4488263;31;33014;-89
2021/08/23 06:57:45;;;;;;;1.52;1.37;;;;;;;22.17;61.41;99939.91;4503298;31;34065;-89
2021/08/23 07:00:13;;;;;;;3.47;1.60;;;;;;;22.12;61.31;99935.75;4488301;31;35376;-92
2021/08/23 07:02:42;;;;;;;3.70;1.70;;;;;;;22.33;61.26;99948.00;4491111;31;34202;-87
2021/08/23 07:05:10;;;;;;;3.12;1.37;;;;;;;22.58;59.98;99956.53;4500585;31;33434;-88
2021/08/23 07:07:37;;;;;;;8.90;1.77;;;;;;;22.48;60.34;99960.56;4474591;31;33151;-89
2021/08/23 07:10:08;;;;;;;2.53;1.58;;;;;;;22.64;59.52;99958.09;4487872;31;34663;-89
2021/08/23 07:12:36;;;;;;;5.43;1.90;;;;;;;22.52;59.62;99956.84;4488258;31;34910;-88
2021/08/23 07:15:03;;;;;;;2.85;1.60;;;;;;;22.65;58.99;99959.81;4501134;31;34412;-87
2021/08/23 07:17:32;;;;;;;2.58;1.73;;;;;;;22.70;57.73;99948.03;4474679;31;33147;-87
2021/08/23 07:19:59;;;;;;;2.60;1.80;;;;;;;22.54;58.40;99965.56;4488583;31;35327;-90
2021/08/23 07:22:27;;;;;;;2.20;1.65;;;;;;;22.68;58.20;99960.53;4461869;31;33914;-88
2021/08/23 07:24:55;;;;;;;2.05;1.50;;;;;;;22.58;58.19;99955.69;4487777;31;34298;-87
2021/08/23 07:27:22;;;;;;;4.20;1.98;;;;;;;22.94;57.85;99948.66;4500833;31;33962;-86
2021/08/23 07:29:50;;;;;;;5.70;2.00;;;;;;;23.04;56.99;99949.94;4486165;31;34969;-86
2021/08/23 07:32:18;;;;;;;1.85;1.52;;;;;;;22.91;58.10;99948.84;4487535;31;34922;-87
2021/08/23 07:34:45;;;;;;;3.25;1.58;;;;;;;23.09;56.88;99950.59;4500901;31;33382;-87
2021/08/23 07:37:14;;;;;;;1.83;1.48;;;;;;;22.98;57.02;99938.78;4500387;31;35352;-87
2021/08/23 07:39:43;;;;;;;2.45;1.70;;;;;;;23.15;56.71;99937.03;4487215;31;33977;-87
2021/08/23 07:42:11;;;;;;;1.95;1.65;;;;;;;23.32;56.61;99937.03;4501697;31;33994;-87
2021/08/23 07:44:39;;;;;;;3.08;1.67;;;;;;;23.03;56.46;99924.37;4487587;31;33348;-86
2021/08/23 07:47:07;;;;;;;3.08;1.77;;;;;;;23.09;56.93;99926.72;4485094;31;33699;-88
2021/08/23 07:49:35;;;;;;;2.22;1.52;;;;;;;23.04;56.84;99934.03;4492541;31;34664;-88
2021/08/23 07:52:03;;;;;;;2.92;1.95;;;;;;;22.87;57.39;99931.34;4487407;31;33881;-87
2021/08/23 07:54:32;;;;;;;2.42;1.65;;;;;;;22.87;57.62;99936.62;4501828;31;33578;-92
2021/08/23 07:57:00;;;;;;;2.97;2.17;;;;;;;22.77;57.84;99938.03;4487621;31;32967;-89
2021/08/23 07:59:27;;;;;;;2.85;1.60;;;;;;;22.99;57.87;99941.34;4500134;31;34594;-89
2021/08/23 08:01:55;;;;;;;2.75;1.80;;;;;;;23.14;57.02;99943.25;4461026;31;33622;-88
2021/08/23 08:04:24;;;;;;;2.83;1.83;;;;;;;23.07;56.28;99947.16;4513816;31;33602;-89
2021/08/23 08:06:52;;;;;;;5.47;1.50;;;;;;;23.27;56.31;99943.53;4504116;31;34270;-88
2021/08/23 08:09:20;;;;;;;2.35;1.80;;;;;;;22.99;57.33;99945.81;4503104;31;34382;-91
2021/08/23 08:11:48;;;;;;;4.28;1.75;;;;;;;22.97;56.79;99939.69;4489753;31;33579;-91
2021/08/23 08:14:15;;;;;;;2.33;1.60;;;;;;;22.90;56.90;99937.38;4489772;31;32805;-92
2021/08/23 08:16:43;;;;;;;4.03;2.00;;;;;;;23.04;56.58;99949.94;4502806;31;34091;-91
2021/08/23 08:19:11;;;;;;;2.30;1.58;;;;;;;22.86;57.08;99948.19;4489130;31;33910;-90
2021/08/23 08:21:38;;;;;;;3.42;2.10;;;;;;;22.98;56.94;99944.97;4489399;31;34586;-90
2021/08/23 08:24:06;;;;;;;3.83;2.00;;;;;;;22.85;56.91;99943.81;4502604;31;32848;-91
2021/08/23 08:26:33;;;;;;;2.83;1.80;;;;;;;22.89;56.88;99953.38;4502387;31;34193;-90
2021/08/23 08:29:01;;;;;;;3.85;2.00;;;;;;;22.84;57.11;99956.19;4489228;31;34027;-90
2021/08/23 08:31:29;;;;;;;2.62;1.73;;;;;;;22.78;57.62;99953.00;4489286;31;34236;-91
2021/08/23 08:33:57;;;;;;;3.55;1.80;;;;;;;22.83;57.37;99951.84;4489504;31;33789;-90
2021/08/23 08:36:25;;;;;;;2.90;2.12;;;;;;;22.81;58.19;99958.16;4476356;31;33862;-89
2021/08/23 08:38:52;;;;;;;2.55;2.08;;;;;;;22.90;58.02;99952.41;4502488;31;34673;-88
2021/08/23 08:41:20;;;;;;;3.28;1.90;;;;;;;22.70;58.38;99960.47;4517653;31;34863;-89
2021/08/23 08:43:48;;;;;;;2.47;1.70;;;;;;;22.55;58.88;99969.09;4504416;31;33853;-89
2021/08/23 08:46:16;;;;;;;2.53;2.03;;;;;;;22.69;57.97;99964.03;4498084;31;33972;-91
2021/08/23 08:48:44;;;;;;;3.55;1.73;;;;;;;22.44;58.88;99968.72;4488485;31;35039;-89
2021/08/23 08:51:12;;;;;;;2.58;2.15;;;;;;;22.40;59.26;99973.28;4475539;31;33392;-89
2021/08/23 08:53:39;;;;;;;2.37;1.70;;;;;;;22.19;59.73;99980.44;4475614;31;32961;-90
2021/08/23 08:56:07;;;;;;;3.42;1.83;;;;;;;22.27;60.19;99979.22;4463218;31;33554;-89
2021/08/23 08:58:36;;;;;;;2.58;2.00;;;;;;;22.17;60.49;99976.13;4488782;31;35911;-89
2021/08/23 09:01:06;;;;;;;3.90;2.05;;;;;;;22.05;61.23;99979.31;4475700;31;33712;-88
2021/08/23 09:03:34;;;;;;;2.15;1.95;;;;;;;21.98;60.75;99956.69;4476122;31;32650;-90
2021/08/23 09:06:04;;;;;;;2.45;1.90;;;;;;;22.25;60.20;99966.91;4475649;31;33501;-90
2021/08/23 09:08:39;;;;;;;2.33;2.08;;;;;;;22.17;60.38;99977.00;4475582;31;34184;-90
2021/08/23 09:11:11;;;;;;;3.60;2.53;;;;;;;22.18;60.21;99970.75;4488610;31;34261;-90
2021/08/23 09:13:40;;;;;;;3.47;1.90;;;;;;;22.26;60.20;99970.41;4488720;31;33024;-90
2021/08/23 09:16:08;;;;;;;2.90;1.92;;;;;;;22.39;59.37;99968.09;4491654;31;34072;-90
2021/08/23 09:18:36;;;;;;;4.07;2.12;;;;;;;22.36;59.36;99960.25;4491172;31;34118;-90
2021/08/23 09:21:05;;;;;;;2.92;1.90;;;;;;;22.44;59.72;99968.72;4491083;31;33653;-90
2021/08/23 09:23:41;;;;;;;3.95;2.28;;;;;;;22.21;60.05;99975.94;4478252;31;32864;-90
2021/08/23 09:26:13;;;;;;;6.57;2.47;;;;;;;22.54;59.41;99985.91;4491320;31;33396;-91
2021/08/23 09:28:55;;;;;;;2.42;1.95;;;;;;;22.42;61.11;99981.16;4490645;31;34848;-90
2021/08/23 09:31:31;;;;;;;3.58;2.30;;;;;;;22.61;59.53;99972.34;4491017;31;34289;-93
2021/08/23 09:34:04;;;;;;;3.45;2.22;;;;;;;22.81;59.80;99979.38;4491357;31;33059;-88
2021/08/23 09:36:31;;;;;;;3.53;1.90;;;;;;;22.46;61.04;99977.47;4504419;31;34750;-89
2021/08/23 09:39:08;;;;;;;3.03;1.85;;;;;;;22.56;60.67;99976.13;4491126;31;35162;-88
2021/08/23 09:41:40;;;;;;;2.75;1.92;;;;;;;22.32;60.31;99987.84;4504239;31;34938;-87
2021/08/23 09:44:13;;;;;;;4.68;2.03;;;;;;;22.34;61.38;99992.13;4490936;31;33650;-88
2021/08/23 09:46:42;;;;;;;3.12;1.92;;;;;;;22.25;61.00;99984.56;4489876;31;33427;-88
2021/08/23 09:49:12;;;;;;;3.05;2.30;;;;;;;22.21;61.42;99975.06;4490628;31;34899;-88
2021/08/23 09:51:43;;;;;;;4.15;2.20;;;;;;;22.03;62.65;99978.53;4502739;31;34128;-88
2021/08/23 09:54:16;;;;;;;3.67;2.25;;;;;;;21.83;63.35;99976.72;4504042;31;34272;-88
2021/08/23 09:56:48;;;;;;;2.35;1.98;;;;;;;21.86;62.71;99981.91;4504197;31;34736;-90
2021/08/23 09:59:22;;;;;;;3.87;2.25;;;;;;;21.92;63.17;99975.47;4517423;31;35579;-89
2021/08/23 10:01:53;;;;;;;2.92;2.00;;;;;;;22.04;62.52;99985.53;4490441;31;34781;-90
2021/08/23 10:04:22;;;;;;;3.25;2.40;;;;;;;22.10;61.80;99975.56;4477500;31;32760;-89
2021/08/23 10:06:50;;;;;;;2.80;1.80;;;;;;;22.33;61.81;99974.50;4490883;31;34000;-90
2021/08/23 10:09:21;;;;;;;4.10;2.20;;;;;;;22.30;61.39;99971.16;4477910;31;34435;-89
2021/08/23 10:11:50;;;;;;;2.12;1.90;;;;;;;22.32;61.50;99974.59;4477837;31;34338;-89
2021/08/23 10:14:19;;;;;;;3.92;2.08;;;;;;;22.39;61.26;99971.59;4503945;31;33300;-89
2021/08/23 10:16:47;;;;;;;2.90;1.90;;;;;;;22.48;61.12;99970.31;4477402;31;33645;-89
2021/08/23 10:19:15;;;;;;;3.97;2.33;;;;;;;22.39;61.35;99970.72;4490928;31;34759;-88
2021/08/23 10:21:45;;;;;;;2.67;2.00;;;;;;;22.27;61.47;99968.63;4487722;31;33729;-87
2021/08/23 10:24:20;;;;;;;2.95;2.30;;;;;;;22.41;60.96;99964.44;4501012;31;34233;-88
2021/08/23 10:26:48;;;;;;;4.28;2.20;;;;;;;22.44;60.66;99952.84;4487996;31;34847;-87
2021/08/23 10:29:19;;;;;;;2.97;2.20;;;;;;;22.63;60.04;99946.63;4502669;31;34581;-87
2021/08/23 10:31:47;;;;;;;4.18;2.30;;;;;;;22.43;60.81;99945.81;4490510;31;34382;-87
2021/08/23 10:34:27;;;;;;;2.87;2.40;;;;;;;22.48;61.02;99959.69;4489671;31;32624;-86
2021/08/23 10:36:57;;;;;;;2.75;2.25;;;;;;;22.33;61.48;99960.41;4504303;31;33973;-88
2021/08/23 10:39:27;;;;;;;2.85;2.37;;;;;;;22.30;60.97;99963.22;4490719;31;34581;-88
2021/08/23 10:41:56;;;;;;;6.07;2.60;;;;;;;22.31;61.23;99954.31;4490630;31;34463;-87
2021/08/23 10:44:25;;;;;;;5.68;3.05;;;;;;;22.51;60.82;99954.28;4518117;31;33126;-87
2021/08/23 10:47:06;;;;;;;6.05;2.58;;;;;;;22.61;60.56;99953.78;4517826;31;33970;-86
2021/08/23 10:49:44;;;;;;;2.85;2.25;;;;;;;22.45;60.50;99951.88;4516762;31;34910;-87
2021/08/23 10:52:14;;;;;;;4.65;3.00;;;;;;;22.50;60.58;99958.69;4504160;31;34148;-88
2021/08/23 10:54:48;;;;;;;3.50;2.20;;;;;;;22.49;60.46;99956.13;4516864;31;34312;-87
2021/08/23 10:57:21;;;;;;;5.72;2.60;;;;;;;22.37;61.54;99956.69;4503956;31;34296;-87
2021/08/23 11:00:06;;;;;;;6.10;2.62;;;;;;;22.24;62.33;99945.78;4503668;31;34635;-88
2021/08/23 11:02:37;;;;;;;14.52;4.05;;;;;;;22.30;62.13;99939.34;4487832;31;35187;-88
2021/08/23 11:05:16;;;;;;;6.95;3.10;;;;;;;22.34;62.31;99930.34;4475623;31;35898;-89
2021/08/23 11:07:47;;;;;;;3.40;2.45;;;;;;;22.48;62.52;99919.94;4490388;31;34076;-88
2021/08/23 11:10:23;;;;;;;4.32;2.60;;;;;;;22.15;63.93;99936.47;4490420;31;33945;-91
2021/08/23 11:12:54;;;;;;;5.32;2.42;;;;;;;22.16;64.29;99938.19;4490442;31;33485;-89
2021/08/23 11:15:25;;;;;;;3.17;2.62;;;;;;;22.24;64.69;99945.78;4490729;31;33523;-90
2021/08/23 11:18:02;;;;;;;3.37;2.47;;;;;;;22.16;64.36;99940.81;4503781;31;34022;-90
2021/08/23 11:20:32;;;;;;;5.95;2.30;;;;;;;22.17;64.75;99937.25;4474230;31;34084;-90
2021/08/23 11:23:07;;;;;;;3.33;2.53;;;;;;;22.00;65.12;99953.03;4475300;31;33366;-90
2021/08/23 11:25:48;;;;;;;2.58;2.20;;;;;;;21.98;65.73;99948.75;4475145;31;33867;-90
2021/08/23 11:28:21;;;;;;;3.43;2.73;;;;;;;22.04;64.80;99938.72;4474521;31;34263;-92
2021/08/23 11:31:02;;;;;;;3.87;2.60;;;;;;;21.98;65.08;99943.44;4478293;31;237172;-89
2021/08/23 11:33:36;;;;;;;8.93;2.28;;;;;;;22.17;64.37;99945.22;4474874;31;34313;-96
2021/08/23 11:36:09;;;;;;;5.18;2.97;;;;;;;22.09;63.85;99942.03;4462059;31;33900;-90
2021/08/23 11:38:38;;;;;;;4.37;2.92;;;;;;;22.19;64.54;99935.41;4471404;32;34756;-90
2021/08/23 11:41:13;;;;;;;5.37;3.60;;;;;;;22.44;64.09;99927.16;4460375;32;34672;-89